Terminal Aerodrome Forecast
Issued by NWS Wilmington, OH

Home | Current Version | Previous Version | Text Only | Print | Product List | Glossary On
Versions: 1 2 3 4 5 6 7 8 9 10 11 12 13 14 15
224
FTUS41 KILN 141137
TAFDAY
TAF
KDAY 141137Z 1412/1512 13008KT P6SM OVC200
     FM142000 12010KT 4SM -SN SCT015 OVC050
     FM142200 12011KT 3SM -SN BKN015 OVC035
      TEMPO 1422/1501 2SM -SN
     FM150500 15010KT 3SM -FZDZ OVC007
     FM151000 17009KT P6SM OVC008=

USA.gov is the U.S. government's official web portal to all federal, state and local government web resources and services.